Time;durP1;ratioP1;P1;durP2;ratioP2;P2;SDS_P1;SDS_P2;PMS_P1;PMS_P2;Temp;Humidity;BMP_temperature;BMP_pressure;BME280_temperature;BME280_humidity;BME280_pressure;Samples;Min_cycle;Max_cycle;Signal;HPM_P1;HPM_P2
2023/01/30 00:01:15;;;;;;;1.03;0.70;;;;;;;5.52;71.39;95484.91;5093044;28;20460;-58
2023/01/30 00:03:44;;;;;;;0.50;0.40;;;;;;;5.81;70.63;95494.41;5092985;28;20421;-58
2023/01/30 00:06:13;;;;;;;0.70;0.70;;;;;;;5.38;68.06;95412.63;5092844;28;20432;-58
2023/01/30 00:08:41;;;;;;;0.40;0.30;;;;;;;5.92;68.78;95492.81;5092909;28;20511;-59
2023/01/30 00:11:12;;;;;;;0.30;0.20;;;;;;;5.87;68.79;95492.72;5093185;28;20815;-59
2023/01/30 00:13:41;;;;;;;0.40;0.30;;;;;;;5.94;69.29;95494.16;5092777;28;20433;-59
2023/01/30 00:16:09;;;;;;;0.57;0.57;;;;;;;5.73;68.98;95482.44;5092647;28;20436;-59
2023/01/30 00:18:39;;;;;;;0.30;0.30;;;;;;;5.85;71.74;95484.22;5092914;28;20471;-59
2023/01/30 00:21:10;;;;;;;1.17;0.90;;;;;;;5.28;69.24;95459.72;5092637;28;20467;-58
2023/01/30 00:23:39;;;;;;;0.97;0.97;;;;;;;5.01;71.19;95489.09;5092911;28;20439;-59
2023/01/30 00:26:08;;;;;;;5.80;1.73;;;;;;;4.69;73.42;95487.06;5092508;28;20936;-58
2023/01/30 00:28:37;;;;;;;0.73;0.70;;;;;;;3.93;76.34;95494.91;5092644;28;20420;-58
2023/01/30 00:31:05;;;;;;;0.57;0.57;;;;;;;4.37;77.83;95492.66;5092358;28;20440;-60
2023/01/30 00:33:35;;;;;;;0.93;0.93;;;;;;;4.14;77.24;95481.31;5092427;28;20463;-59
2023/01/30 00:36:04;;;;;;;0.53;0.53;;;;;;;3.62;79.28;95486.25;5092416;28;20483;-59
2023/01/30 00:38:34;;;;;;;1.00;0.67;;;;;;;3.65;80.33;95477.97;5092483;28;20487;-58
2023/01/30 00:41:03;;;;;;;0.40;0.40;;;;;;;3.54;80.40;95486.56;5092422;28;21040;-59
2023/01/30 00:49:14;;;;;;;2.00;1.57;;;;;;;3.69;81.00;95468.63;5091722;28;21031;-59
2023/01/30 00:51:42;;;;;;;0.30;0.30;;;;;;;4.21;85.25;95467.06;5091746;28;20527;-60
2023/01/30 00:54:11;;;;;;;0.40;0.30;;;;;;;4.11;79.71;95447.66;5091528;28;20465;-59
2023/01/30 00:56:40;;;;;;;0.60;0.30;;;;;;;4.14;79.28;95455.06;5091809;28;20522;-59
2023/01/30 00:59:08;;;;;;;2.40;2.30;;;;;;;4.31;79.38;95450.75;5092126;28;20494;-60
2023/01/30 01:01:37;;;;;;;0.73;0.70;;;;;;;4.43;78.51;95454.19;5090846;28;20469;-60
2023/01/30 01:04:07;;;;;;;1.37;0.53;;;;;;;4.45;77.02;95446.91;5091190;28;20426;-59
2023/01/30 01:06:36;;;;;;;0.50;0.50;;;;;;;4.70;79.82;95444.06;5091576;28;20488;-59
2023/01/30 01:09:04;;;;;;;0.70;0.70;;;;;;;4.60;75.55;95433.31;5091663;28;20524;-58
2023/01/30 01:11:35;;;;;;;0.60;0.50;;;;;;;4.15;79.39;95446.19;5092192;28;20450;-59
2023/01/30 01:14:05;;;;;;;0.90;0.90;;;;;;;4.07;78.88;95436.03;5091622;28;20432;-59
2023/01/30 01:16:34;;;;;;;0.50;0.50;;;;;;;4.04;78.87;95425.97;5091766;28;20427;-59
2023/01/30 01:19:03;;;;;;;0.30;0.30;;;;;;;4.21;79.25;95434.78;5091835;28;20472;-59
2023/01/30 01:21:31;;;;;;;0.43;0.40;;;;;;;4.57;81.30;95441.66;5092173;28;20421;-59
2023/01/30 01:24:00;;;;;;;1.00;0.90;;;;;;;4.27;78.72;95432.06;5091782;28;20445;-59
2023/01/30 01:26:29;;;;;;;1.33;0.93;;;;;;;3.66;80.46;95436.81;5091628;28;20425;-59
2023/01/30 01:28:59;;;;;;;0.67;0.67;;;;;;;3.26;82.91;95427.91;5091603;28;20434;-58
2023/01/30 01:31:27;;;;;;;2.87;1.00;;;;;;;3.14;85.63;95419.97;5091629;28;20428;-58
2023/01/30 01:33:56;;;;;;;1.00;0.83;;;;;;;2.92;86.19;95432.72;5091602;28;20822;-59
2023/01/30 01:36:25;;;;;;;0.50;0.50;;;;;;;2.96;87.89;95425.25;5090797;28;20554;-60
2023/01/30 01:39:13;;;;;;;1.10;0.93;;;;;;;2.61;90.13;95419.00;5090989;28;20514;-59
2023/01/30 01:41:40;;;;;;;3.53;2.10;;;;;;;2.01;92.03;95342.09;5091468;28;20456;-59
2023/01/30 01:44:11;;;;;;;0.30;0.20;;;;;;;2.68;92.40;95427.56;5091406;28;20431;-59
2023/01/30 01:46:44;;;;;;;0.70;0.30;;;;;;;2.46;92.56;95409.66;5090531;28;20506;-59
2023/01/30 01:49:17;;;;;;;0.37;0.33;;;;;;;1.32;94.21;95249.06;5091515;28;20442;-59
2023/01/30 01:51:52;;;;;;;0.90;0.90;;;;;;;2.36;95.19;95408.53;5091649;28;20466;-59
2023/01/30 01:54:27;;;;;;;1.20;1.20;;;;;;;2.26;96.69;95413.47;5091806;28;20432;-59
2023/01/30 01:56:56;;;;;;;0.67;0.67;;;;;;;2.09;97.38;95400.16;5090586;28;20923;-59
2023/01/30 01:59:28;;;;;;;0.57;0.40;;;;;;;2.33;95.04;95347.00;5090794;28;20479;-59
2023/01/30 02:02:01;;;;;;;0.73;0.73;;;;;;;2.61;92.85;95411.13;5091165;28;20514;-59
2023/01/30 02:07:21;;;;;;;2.10;2.00;;;;;;;2.47;94.09;95408.66;5091248;28;20439;-59
2023/01/30 02:09:51;;;;;;;0.30;0.30;;;;;;;2.87;94.82;95405.59;5091336;28;20421;-59
2023/01/30 02:12:20;;;;;;;2.30;2.20;;;;;;;2.97;90.60;95385.75;5091232;28;20431;-60
2023/01/30 02:14:50;;;;;;;0.30;0.20;;;;;;;3.57;87.35;95391.78;5091370;28;20841;-59
2023/01/30 02:17:19;;;;;;;0.40;0.30;;;;;;;3.58;86.01;95395.22;5093774;28;20434;-59
2023/01/30 02:19:54;;;;;;;0.40;0.40;;;;;;;3.53;83.40;95361.03;5095217;28;20551;-59
2023/01/30 02:22:42;;;;;;;0.73;0.73;;;;;;;4.01;82.33;95371.34;5095236;28;20426;-59
2023/01/30 02:25:33;;;;;;;0.37;0.30;;;;;;;4.05;81.90;95393.50;5095008;28;20909;-59
2023/01/30 02:28:45;;;;;;;0.30;0.20;;;;;;;4.26;80.25;95391.09;5078441;28;20969;-60
2023/01/30 02:31:34;;;;;;;2.57;0.40;;;;;;;3.05;78.72;95214.47;5095001;28;21095;-59
2023/01/30 02:34:19;;;;;;;0.30;0.20;;;;;;;4.12;78.76;95386.31;5095098;28;20437;-59
2023/01/30 02:36:56;;;;;;;0.57;0.50;;;;;;;4.30;78.31;95401.97;5094325;28;20475;-59
2023/01/30 02:39:35;;;;;;;0.57;0.57;;;;;;;4.31;78.59;95393.03;5094915;28;20977;-59
2023/01/30 02:42:14;;;;;;;0.40;0.40;;;;;;;3.78;78.69;95317.06;5094784;28;20519;-59
2023/01/30 02:44:52;;;;;;;0.50;0.50;;;;;;;4.14;78.82;95358.03;5095085;28;20422;-59
2023/01/30 02:47:29;;;;;;;0.50;0.40;;;;;;;3.25;79.96;95209.72;5094675;28;20428;-59
2023/01/30 02:50:04;;;;;;;0.53;0.53;;;;;;;4.19;79.17;95398.28;5094630;28;21013;-59
2023/01/30 02:52:34;;;;;;;0.40;0.30;;;;;;;3.74;78.69;95318.56;5094882;28;20435;-60
2023/01/30 02:55:08;;;;;;;1.50;0.80;;;;;;;4.24;78.39;95387.91;5094505;28;20424;-59
2023/01/30 02:57:37;;;;;;;0.30;0.20;;;;;;;4.20;77.28;95385.97;5094294;28;20474;-59
2023/01/30 03:00:07;;;;;;;0.30;0.20;;;;;;;4.24;76.81;95387.13;5094432;28;20975;-59
2023/01/30 03:02:49;;;;;;;0.30;0.20;;;;;;;4.33;76.70;95396.22;5093906;28;20438;-59
2023/01/30 03:05:36;;;;;;;0.33;0.30;;;;;;;4.28;76.58;95389.03;5094403;28;20471;-60
2023/01/30 03:08:18;;;;;;;0.33;0.27;;;;;;;4.17;75.85;95386.44;5093665;28;20458;-60
2023/01/30 03:10:55;;;;;;;0.60;0.60;;;;;;;4.14;76.52;95381.63;5094330;28;20458;-60
2023/01/30 03:13:31;;;;;;;0.30;0.20;;;;;;;3.81;76.89;95371.69;5094446;28;20508;-59
2023/01/30 03:16:04;;;;;;;0.30;0.20;;;;;;;3.52;76.99;95299.16;5094250;28;20445;-59
2023/01/30 03:18:33;;;;;;;0.33;0.33;;;;;;;3.95;77.64;95361.78;5093192;28;20895;-59
2023/01/30 03:21:05;;;;;;;0.93;0.93;;;;;;;4.09;76.81;95371.03;5093514;28;20430;-59
2023/01/30 03:23:33;;;;;;;4.53;0.30;;;;;;;3.72;76.74;95331.06;5092876;28;20454;-60
2023/01/30 03:26:05;;;;;;;0.30;0.20;;;;;;;4.02;76.85;95380.84;5093869;28;20461;-59
2023/01/30 03:28:34;;;;;;;0.47;0.47;;;;;;;4.07;76.92;95378.34;5092838;28;20419;-59
2023/01/30 03:31:02;;;;;;;0.30;0.20;;;;;;;3.98;76.66;95379.66;5093682;28;20433;-59
2023/01/30 03:33:31;;;;;;;0.87;0.87;;;;;;;3.80;77.07;95354.34;5093839;28;20474;-59
2023/01/30 03:36:01;;;;;;;0.70;0.60;;;;;;;3.87;77.19;95367.38;5092631;28;20475;-59
2023/01/30 03:38:29;;;;;;;0.30;0.30;;;;;;;4.06;77.42;95379.34;5093251;28;20782;-59
2023/01/30 03:41:00;;;;;;;1.13;0.97;;;;;;;3.93;77.45;95380.34;5093363;28;20433;-58
2023/01/30 03:43:29;;;;;;;0.30;0.20;;;;;;;3.51;76.64;95334.25;5093304;28;21005;-59
2023/01/30 03:45:57;;;;;;;0.30;0.20;;;;;;;3.85;76.89;95378.88;5093285;28;20422;-59
2023/01/30 03:48:25;;;;;;;0.60;0.60;;;;;;;3.69;76.90;95366.41;5093155;28;20432;-58
2023/01/30 03:50:54;;;;;;;0.50;0.50;;;;;;;3.72;76.46;95386.91;5093142;28;20428;-58
2023/01/30 03:53:24;;;;;;;0.63;0.53;;;;;;;3.72;76.95;95384.31;5093191;28;20490;-58
2023/01/30 03:55:52;;;;;;;0.53;0.53;;;;;;;3.44;76.61;95378.09;5093540;28;20424;-58
2023/01/30 03:58:20;;;;;;;0.30;0.20;;;;;;;3.65;77.16;95372.31;5093196;28;20457;-58
2023/01/30 04:00:48;;;;;;;0.43;0.43;;;;;;;3.21;76.63;95293.16;5093058;28;20467;-58
2023/01/30 04:03:17;;;;;;;0.30;0.20;;;;;;;3.52;76.68;95317.47;5092922;28;20431;-58
2023/01/30 04:05:45;;;;;;;0.60;0.60;;;;;;;3.47;76.86;95320.78;5092993;28;20426;-58
2023/01/30 04:08:13;;;;;;;0.60;0.60;;;;;;;3.64;76.95;95362.88;5092227;28;20431;-59
2023/01/30 04:10:43;;;;;;;0.43;0.43;;;;;;;3.36;78.12;95354.81;5092838;28;20467;-59
2023/01/30 04:13:11;;;;;;;0.30;0.20;;;;;;;3.17;78.22;95338.34;5091975;28;20431;-58
2023/01/30 04:15:40;;;;;;;1.07;0.50;;;;;;;3.34;77.41;95328.06;5092815;28;20430;-59
2023/01/30 04:18:08;;;;;;;0.40;0.30;;;;;;;2.37;76.78;95165.13;5092679;28;20528;-59
2023/01/30 04:20:37;;;;;;;0.50;0.40;;;;;;;3.67;76.63;95351.91;5091583;28;20473;-59
2023/01/30 04:23:05;;;;;;;0.30;0.20;;;;;;;3.38;75.77;95316.09;5092436;28;20434;-59
2023/01/30 04:25:34;;;;;;;0.30;0.30;;;;;;;3.56;76.15;95339.63;5092533;28;20853;-59
2023/01/30 04:28:04;;;;;;;0.50;0.50;;;;;;;3.59;76.06;95360.13;5091768;28;20434;-59
2023/01/30 04:30:32;;;;;;;0.43;0.30;;;;;;;3.32;76.67;95335.31;5091650;28;20439;-59
2023/01/30 04:33:00;;;;;;;0.40;0.30;;;;;;;2.68;77.50;95283.66;5092419;28;20426;-59
2023/01/30 04:35:28;;;;;;;0.90;0.90;;;;;;;2.77;78.32;95338.06;5092301;28;20477;-59
2023/01/30 04:37:57;;;;;;;0.37;0.27;;;;;;;2.88;78.20;95381.84;5092099;28;20436;-59
2023/01/30 04:40:25;;;;;;;2.20;0.60;;;;;;;2.73;79.14;95370.16;5091595;28;20472;-58
2023/01/30 04:42:53;;;;;;;0.53;0.53;;;;;;;1.84;79.67;95237.34;5092247;28;20467;-58
2023/01/30 04:45:23;;;;;;;0.73;0.73;;;;;;;2.75;79.63;95375.94;5092148;28;20423;-58
2023/01/30 04:47:51;;;;;;;0.50;0.50;;;;;;;2.49;80.91;95356.09;5091851;28;20464;-58
2023/01/30 04:50:20;;;;;;;1.47;1.37;;;;;;;2.13;82.79;95383.00;5092279;28;20466;-58
2023/01/30 04:52:48;;;;;;;1.60;1.50;;;;;;;1.73;85.34;95385.16;5092426;28;20437;-58
2023/01/30 04:55:16;;;;;;;1.27;1.27;;;;;;;1.42;89.44;95351.22;5092439;28;20431;-58
2023/01/30 04:57:45;;;;;;;0.97;0.97;;;;;;;1.64;89.92;95364.75;5092267;28;20539;-58
2023/01/30 05:00:14;;;;;;;0.50;0.40;;;;;;;0.25;91.13;95154.53;5091437;28;20564;-59
2023/01/30 05:02:44;;;;;;;0.73;0.73;;;;;;;1.50;92.09;95374.47;5091890;28;20470;-59
2023/01/30 05:05:12;;;;;;;0.97;0.97;;;;;;;1.57;93.00;95371.84;5092024;28;20433;-58
2023/01/30 05:07:41;;;;;;;0.90;0.90;;;;;;;1.13;92.84;95300.44;5091974;28;20812;-59
2023/01/30 05:10:10;;;;;;;0.50;0.47;;;;;;;1.53;93.14;95368.84;5091839;28;20444;-59
2023/01/30 05:12:38;;;;;;;0.40;0.30;;;;;;;1.89;91.30;95361.13;5091584;28;20426;-59
2023/01/30 05:15:07;;;;;;;0.67;0.67;;;;;;;2.14;88.74;95352.44;5091910;28;20431;-59
2023/01/30 05:17:36;;;;;;;1.93;1.37;;;;;;;2.30;87.71;95375.44;5091913;28;20970;-59
2023/01/30 05:20:08;;;;;;;0.40;0.40;;;;;;;2.43;86.83;95375.28;5091767;28;20475;-59
2023/01/30 05:22:36;;;;;;;3.40;0.77;;;;;;;1.08;86.34;95168.97;5091735;28;20903;-60
2023/01/30 05:25:06;;;;;;;0.63;0.50;;;;;;;2.45;86.15;95371.44;5091944;28;20429;-59
2023/01/30 05:27:34;;;;;;;0.37;0.33;;;;;;;2.32;85.79;95352.47;5091808;28;20417;-60
2023/01/30 05:30:02;;;;;;;0.67;0.67;;;;;;;1.98;84.45;95316.41;5091538;28;20435;-59
2023/01/30 05:32:31;;;;;;;2.00;0.53;;;;;;;1.90;83.63;95297.38;5091505;28;20429;-59
2023/01/30 05:34:59;;;;;;;2.77;0.63;;;;;;;2.52;83.74;95372.19;5091092;28;20839;-60
2023/01/30 05:37:29;;;;;;;0.47;0.47;;;;;;;2.67;82.01;95381.47;5091072;28;20467;-59
2023/01/30 05:39:57;;;;;;;0.60;0.60;;;;;;;2.35;82.14;95392.06;5091209;28;20505;-59
2023/01/30 05:42:25;;;;;;;3.23;3.13;;;;;;;1.93;82.71;95361.47;5091369;28;20524;-59
2023/01/30 05:44:54;;;;;;;1.23;1.23;;;;;;;1.74;84.59;95365.06;5091452;28;20878;-59
2023/01/30 05:47:22;;;;;;;1.33;1.33;;;;;;;1.90;84.31;95328.72;5091506;28;20431;-60
2023/01/30 05:49:50;;;;;;;4.63;1.13;;;;;;;2.53;83.13;95381.59;5091503;28;20441;-59
2023/01/30 05:52:18;;;;;;;0.30;0.30;;;;;;;2.27;83.42;95368.00;5094235;28;20427;-60
2023/01/30 05:54:48;;;;;;;2.57;2.47;;;;;;;2.71;83.07;95386.03;5095474;28;20442;-60
2023/01/30 05:57:16;;;;;;;0.80;0.80;;;;;;;2.62;83.17;95365.63;5095491;28;20423;-59
2023/01/30 05:59:45;;;;;;;4.53;4.23;;;;;;;2.42;83.31;95395.44;5095359;28;20467;-60
2023/01/30 06:02:13;;;;;;;7.90;3.03;;;;;;;2.70;82.30;95396.75;5095053;28;20464;-59
2023/01/30 06:04:41;;;;;;;0.70;0.70;;;;;;;2.58;84.13;95394.84;5094835;28;20429;-59
2023/01/30 06:07:10;;;;;;;0.63;0.63;;;;;;;2.32;85.62;95394.31;5094817;28;20436;-59
2023/01/30 06:09:38;;;;;;;3.30;3.13;;;;;;;2.74;84.77;95397.88;5094562;28;20448;-60
2023/01/30 06:12:08;;;;;;;2.40;2.20;;;;;;;2.70;84.68;95401.97;5094594;28;20873;-60
2023/01/30 06:14:37;;;;;;;2.10;2.00;;;;;;;2.58;85.25;95398.50;5094579;28;20499;-60
2023/01/30 06:17:05;;;;;;;0.80;0.80;;;;;;;2.91;85.44;95396.31;5095477;28;20422;-60
2023/01/30 06:19:33;;;;;;;2.60;2.50;;;;;;;2.88;84.61;95376.59;5095147;28;20431;-62
2023/01/30 06:22:03;;;;;;;1.47;1.37;;;;;;;2.95;83.99;95381.75;5093126;28;20465;-59
2023/01/30 06:24:31;;;;;;;1.80;0.83;;;;;;;2.94;83.46;95377.53;5094178;28;20452;-59
2023/01/30 06:26:59;;;;;;;0.60;0.60;;;;;;;3.10;82.02;95401.31;5093812;28;20435;-59
2023/01/30 06:29:29;;;;;;;1.90;1.20;;;;;;;3.01;82.29;95399.97;5093782;28;20429;-60
2023/01/30 06:31:57;;;;;;;1.83;1.77;;;;;;;3.30;82.30;95387.13;5094693;28;20433;-59
2023/01/30 06:34:26;;;;;;;3.00;2.80;;;;;;;3.10;79.96;95371.69;5095061;28;20847;-59
2023/01/30 06:36:54;;;;;;;1.87;1.77;;;;;;;3.31;80.21;95391.38;5094469;28;20511;-59
2023/01/30 06:39:22;;;;;;;3.73;1.90;;;;;;;3.65;79.23;95382.81;5094908;28;20534;-59
2023/01/30 06:41:51;;;;;;;3.97;3.77;;;;;;;3.71;79.51;95382.72;5094900;28;20542;-59
2023/01/30 06:44:19;;;;;;;2.13;2.03;;;;;;;3.85;78.75;95385.91;5094082;28;20463;-59
2023/01/30 06:46:49;;;;;;;2.17;2.00;;;;;;;3.91;77.67;95377.16;5094443;28;20422;-58
2023/01/30 06:49:17;;;;;;;5.93;2.17;;;;;;;3.87;77.89;95388.34;5094525;28;20434;-58
2023/01/30 06:51:45;;;;;;;2.23;2.13;;;;;;;3.95;77.25;95377.53;5094486;28;20657;-58
2023/01/30 06:54:14;;;;;;;4.50;2.47;;;;;;;3.62;77.93;95364.91;5094436;28;20420;-58
2023/01/30 06:56:42;;;;;;;1.83;1.77;;;;;;;3.56;79.19;95386.78;5094278;28;20431;-58
2023/01/30 06:59:10;;;;;;;1.23;1.03;;;;;;;3.67;79.78;95386.00;5094223;28;20952;-58
2023/01/30 07:01:39;;;;;;;4.20;4.00;;;;;;;3.76;77.70;95385.47;5093700;28;20923;-58
2023/01/30 07:04:08;;;;;;;0.43;0.43;;;;;;;3.61;78.11;95386.91;5094536;28;20428;-58
2023/01/30 07:06:40;;;;;;;1.97;1.73;;;;;;;3.38;79.01;95382.41;5094102;28;20428;-58
2023/01/30 07:09:08;;;;;;;2.20;1.33;;;;;;;3.08;78.58;95384.22;5094543;28;20430;-59
2023/01/30 07:11:37;;;;;;;2.60;2.40;;;;;;;3.18;79.38;95374.81;5094116;28;20460;-58
2023/01/30 07:14:07;;;;;;;1.63;1.53;;;;;;;3.75;78.03;95386.47;5094159;28;20419;-59
2023/01/30 07:16:35;;;;;;;0.90;0.90;;;;;;;3.69;77.60;95384.75;5094015;28;20467;-59
2023/01/30 07:19:03;;;;;;;9.93;2.20;;;;;;;3.98;76.65;95377.06;5094061;28;20433;-60
2023/01/30 07:21:33;;;;;;;1.37;0.50;;;;;;;4.28;75.39;95378.56;5093760;28;20502;-59
2023/01/30 07:24:01;;;;;;;2.97;1.13;;;;;;;4.49;73.71;95385.06;5094028;28;20417;-59
2023/01/30 07:26:30;;;;;;;0.47;0.47;;;;;;;4.22;73.43;95376.88;5093767;28;20465;-60
2023/01/30 07:28:58;;;;;;;0.60;0.60;;;;;;;4.04;72.25;95327.13;5093731;28;20432;-60
2023/01/30 07:31:27;;;;;;;0.40;0.40;;;;;;;4.28;72.54;95362.81;5094039;28;20522;-60
2023/01/30 07:33:55;;;;;;;0.50;0.50;;;;;;;4.60;71.63;95378.22;5093694;28;20438;-60
2023/01/30 07:36:23;;;;;;;1.43;1.43;;;;;;;4.83;69.87;95378.94;5093467;28;20476;-59
2023/01/30 07:38:53;;;;;;;0.50;0.50;;;;;;;5.22;68.69;95372.09;5093565;28;20431;-58
2023/01/30 07:41:21;;;;;;;0.77;0.77;;;;;;;4.78;69.83;95375.44;5093794;28;20496;-58
2023/01/30 07:43:50;;;;;;;4.77;1.17;;;;;;;4.95;68.56;95377.13;5093551;28;20503;-57
2023/01/30 07:46:18;;;;;;;0.50;0.40;;;;;;;5.02;68.13;95375.16;5093788;28;20445;-57
2023/01/30 07:48:46;;;;;;;0.60;0.60;;;;;;;5.04;68.85;95375.72;5093349;28;20464;-57
2023/01/30 07:51:15;;;;;;;0.40;0.40;;;;;;;4.88;67.33;95342.28;5093335;28;20472;-58
2023/01/30 07:53:43;;;;;;;1.37;1.27;;;;;;;5.10;66.02;95374.78;5093293;28;20461;-58
2023/01/30 07:56:17;;;;;;;0.30;0.30;;;;;;;5.47;66.80;95379.66;5093175;28;20462;-58
2023/01/30 07:58:45;;;;;;;0.70;0.70;;;;;;;5.12;66.19;95370.09;5092535;28;20821;-58
2023/01/30 08:01:14;;;;;;;3.63;1.17;;;;;;;5.50;67.00;95379.19;5093330;28;20503;-58
2023/01/30 08:03:44;;;;;;;0.50;0.40;;;;;;;5.52;66.93;95375.28;5093391;28;20516;-58
2023/01/30 08:06:13;;;;;;;6.13;2.33;;;;;;;4.78;68.67;95305.31;5093164;28;20932;-59
2023/01/30 08:08:42;;;;;;;1.40;1.40;;;;;;;5.56;67.60;95371.19;5093351;28;20799;-60
2023/01/30 08:11:10;;;;;;;11.43;2.10;;;;;;;5.55;67.01;95374.81;5093450;28;20499;-60
2023/01/30 08:13:40;;;;;;;1.70;1.00;;;;;;;5.19;66.92;95377.06;5092225;28;20819;-60
2023/01/30 08:16:08;;;;;;;0.77;0.77;;;;;;;4.50;68.97;95370.91;5093008;28;20506;-60
2023/01/30 08:18:37;;;;;;;0.90;0.90;;;;;;;4.66;69.19;95377.25;5092953;28;20775;-60
2023/01/30 08:21:07;;;;;;;0.73;0.73;;;;;;;4.72;69.33;95369.28;5092698;28;20432;-60
2023/01/30 08:23:35;;;;;;;1.80;1.60;;;;;;;4.56;70.13;95356.84;5092729;28;20470;-61
2023/01/30 08:26:05;;;;;;;1.63;1.57;;;;;;;5.09;70.37;95381.06;5092790;28;20504;-61
2023/01/30 08:28:33;;;;;;;1.30;1.30;;;;;;;4.95;70.64;95357.94;5092756;28;20432;-60
2023/01/30 08:31:05;;;;;;;0.40;0.40;;;;;;;5.41;69.13;95367.47;5092727;28;20428;-60
2023/01/30 08:33:33;;;;;;;4.53;0.80;;;;;;;5.18;69.73;95363.09;5092696;28;20464;-60
2023/01/30 08:36:02;;;;;;;0.30;0.30;;;;;;;4.94;68.67;95357.13;5092450;28;20915;-60
2023/01/30 08:38:30;;;;;;;14.77;2.20;;;;;;;5.12;68.97;95372.72;5092893;28;20421;-60
2023/01/30 08:40:59;;;;;;;6.93;1.53;;;;;;;5.47;68.20;95356.00;5092266;28;20975;-59
2023/01/30 08:43:28;;;;;;;7.73;2.70;;;;;;;5.53;68.61;95366.38;5092191;28;20837;-58
2023/01/30 08:45:57;;;;;;;1.43;1.43;;;;;;;5.51;67.77;95349.25;5092647;28;20445;-58
2023/01/30 08:48:26;;;;;;;6.37;4.50;;;;;;;5.48;67.57;95353.16;5092522;28;20984;-58
2023/01/30 08:50:58;;;;;;;1.13;1.03;;;;;;;5.89;67.27;95354.66;5092370;28;20447;-58
2023/01/30 08:53:27;;;;;;;1.00;1.00;;;;;;;6.27;65.02;95346.81;5092351;28;20424;-57
2023/01/30 08:55:55;;;;;;;0.97;0.97;;;;;;;6.14;65.16;95341.09;5092315;28;20442;-57
2023/01/30 08:58:23;;;;;;;2.50;2.27;;;;;;;6.25;65.51;95343.63;5092289;28;20420;-57
2023/01/30 09:00:52;;;;;;;2.50;2.30;;;;;;;6.39;66.26;95341.47;5092057;28;20508;-57
2023/01/30 09:03:20;;;;;;;1.70;1.60;;;;;;;6.38;63.65;95338.03;5092068;28;20470;-58
2023/01/30 09:05:55;;;;;;;5.63;1.00;;;;;;;6.79;58.81;95334.09;5091945;28;20429;-57
2023/01/30 09:08:24;;;;;;;0.40;0.40;;;;;;;6.66;59.73;95329.19;5092116;28;20519;-57
2023/01/30 09:10:52;;;;;;;1.43;0.43;;;;;;;6.44;61.68;95317.84;5091988;28;20623;-58
2023/01/30 09:13:20;;;;;;;0.47;0.43;;;;;;;6.47;61.35;95316.56;5092396;28;20452;-58
2023/01/30 09:15:49;;;;;;;13.13;1.37;;;;;;;6.17;61.31;95303.78;5091961;28;20424;-58
2023/01/30 09:18:17;;;;;;;0.63;0.27;;;;;;;6.65;58.00;95300.47;5092354;28;20419;-58
2023/01/30 09:20:45;;;;;;;0.40;0.40;;;;;;;6.92;59.06;95298.69;5091917;28;20479;-58
2023/01/30 09:23:16;;;;;;;0.77;0.77;;;;;;;6.59;59.55;95283.00;5091265;28;20465;-58
2023/01/30 09:25:45;;;;;;;0.50;0.50;;;;;;;6.91;59.12;95289.97;5091556;28;20515;-59
2023/01/30 09:28:14;;;;;;;0.87;0.87;;;;;;;6.52;57.40;95300.84;5091942;28;20517;-59
2023/01/30 09:30:43;;;;;;;4.33;0.83;;;;;;;6.68;58.13;95295.50;5091713;28;20791;-59
2023/01/30 09:33:11;;;;;;;1.57;1.47;;;;;;;6.81;57.19;95281.16;5091949;28;20897;-59
2023/01/30 09:35:39;;;;;;;8.70;2.17;;;;;;;6.82;57.96;95286.19;5091435;28;20523;-58
2023/01/30 09:38:07;;;;;;;8.57;1.87;;;;;;;6.90;56.65;95284.97;5091615;28;20429;-58
2023/01/30 09:40:51;;;;;;;0.73;0.60;;;;;;;7.69;57.06;95284.16;5092018;28;20506;-58
2023/01/30 09:43:39;;;;;;;0.60;0.40;;;;;;;8.01;55.51;95256.94;5091935;28;20849;-59
2023/01/30 09:46:23;;;;;;;1.03;0.80;;;;;;;7.92;54.41;95279.59;5091502;28;20510;-57
2023/01/30 09:48:58;;;;;;;0.80;0.50;;;;;;;7.57;55.90;95278.25;5091628;28;20427;-58
2023/01/30 09:51:37;;;;;;;0.60;0.60;;;;;;;7.86;56.32;95270.03;5091522;28;20419;-58
2023/01/30 09:54:16;;;;;;;1.90;0.47;;;;;;;7.60;57.20;95272.47;5091420;28;20789;-58
2023/01/30 09:56:46;;;;;;;0.90;0.90;;;;;;;7.25;56.10;95269.53;5091337;28;20851;-58
2023/01/30 09:59:22;;;;;;;0.93;0.57;;;;;;;7.47;55.74;95258.91;5091321;28;20435;-57
2023/01/30 10:01:59;;;;;;;3.30;1.20;;;;;;;7.86;54.91;95264.75;5091371;28;20425;-58
2023/01/30 10:04:33;;;;;;;0.77;0.70;;;;;;;8.06;55.05;95263.06;5091629;28;20440;-57
2023/01/30 10:07:11;;;;;;;0.40;0.40;;;;;;;7.27;55.32;95267.44;5091727;28;20446;-58
2023/01/30 10:09:48;;;;;;;0.30;0.20;;;;;;;7.07;53.99;95196.09;5091335;28;20437;-58
2023/01/30 10:12:34;;;;;;;1.27;0.67;;;;;;;7.09;55.55;95253.78;5091240;28;21097;-58
2023/01/30 10:15:28;;;;;;;0.90;0.90;;;;;;;7.30;53.57;95245.84;5091552;28;20440;-58
2023/01/30 10:18:13;;;;;;;0.30;0.30;;;;;;;7.67;53.10;95230.84;5087742;28;20499;-58
2023/01/30 10:20:49;;;;;;;0.30;0.20;;;;;;;7.73;55.08;95223.78;5091062;28;20416;-58
2023/01/30 10:23:46;;;;;;;3.90;0.60;;;;;;;7.52;53.85;95222.81;5091059;28;20476;-58
2023/01/30 10:26:18;;;;;;;0.30;0.20;;;;;;;8.29;51.59;95220.47;5091225;28;20509;-58
2023/01/30 10:28:56;;;;;;;0.40;0.40;;;;;;;8.52;50.72;95208.66;5091514;28;20437;-58
2023/01/30 10:31:42;;;;;;;0.40;0.33;;;;;;;7.89;52.55;95208.84;5091084;28;20421;-58
2023/01/30 10:34:14;;;;;;;0.70;0.70;;;;;;;8.20;51.20;95190.28;5090882;28;20462;-58
2023/01/30 10:36:51;;;;;;;0.40;0.30;;;;;;;8.12;51.90;95189.97;5091039;28;20467;-59
2023/01/30 10:39:26;;;;;;;0.30;0.20;;;;;;;8.21;50.46;95188.44;5094864;28;20877;-59
2023/01/30 10:42:07;;;;;;;0.40;0.20;;;;;;;8.36;51.65;95175.31;5094888;28;20973;-59
2023/01/30 10:44:41;;;;;;;1.77;1.67;;;;;;;7.68;51.92;95171.78;5095114;28;20443;-59
2023/01/30 10:47:32;;;;;;;0.30;0.20;;;;;;;7.18;51.21;95150.34;5094757;28;20420;-58
2023/01/30 10:50:17;;;;;;;0.50;0.50;;;;;;;7.50;51.88;95124.72;5094541;28;20504;-58
2023/01/30 10:52:56;;;;;;;0.40;0.30;;;;;;;7.95;51.95;95144.47;5094624;28;20426;-59
2023/01/30 10:55:32;;;;;;;0.90;0.20;;;;;;;8.26;52.41;95154.97;5094512;28;20433;-58
2023/01/30 10:58:15;;;;;;;2.40;0.60;;;;;;;8.81;50.31;95150.88;5094719;28;20809;-58
2023/01/30 11:00:52;;;;;;;1.17;0.63;;;;;;;8.42;50.96;95145.25;5094747;28;20521;-58
2023/01/30 11:03:28;;;;;;;0.47;0.47;;;;;;;8.53;50.62;95136.28;5094425;28;21005;-58
2023/01/30 11:06:01;;;;;;;1.80;1.23;;;;;;;8.62;51.74;95134.75;5094641;28;20459;-58
2023/01/30 11:08:32;;;;;;;0.30;0.27;;;;;;;8.61;50.91;95135.78;5094236;28;20500;-59
2023/01/30 11:11:00;;;;;;;0.30;0.30;;;;;;;8.82;52.00;95128.69;5093985;28;20441;-58
2023/01/30 11:13:31;;;;;;;0.53;0.53;;;;;;;8.95;49.58;95114.97;5094285;28;20416;-60
2023/01/30 11:16:05;;;;;;;0.40;0.40;;;;;;;8.78;50.26;95106.47;5094161;28;20429;-58
2023/01/30 11:18:44;;;;;;;0.40;0.40;;;;;;;8.06;49.07;95101.25;5094228;28;20418;-58
2023/01/30 11:21:33;;;;;;;0.40;0.23;;;;;;;7.89;49.73;95104.09;5093804;28;20521;-58
2023/01/30 11:24:17;;;;;;;0.80;0.80;;;;;;;7.25;49.76;95100.03;5094164;28;20492;-58
2023/01/30 11:26:47;;;;;;;0.40;0.40;;;;;;;7.70;49.25;95092.38;5094018;28;20425;-58
2023/01/30 11:29:24;;;;;;;7.00;0.50;;;;;;;8.39;50.05;95084.22;5093925;28;20427;-58
2023/01/30 11:31:55;;;;;;;0.33;0.27;;;;;;;9.14;50.51;95076.38;5094327;28;20424;-58
2023/01/30 11:34:24;;;;;;;0.40;0.20;;;;;;;8.52;47.38;95050.19;5093821;28;20495;-58
2023/01/30 11:36:53;;;;;;;0.40;0.40;;;;;;;9.06;48.62;95068.19;5093418;28;20501;-59
2023/01/30 11:39:28;;;;;;;0.60;0.60;;;;;;;9.29;46.60;95033.22;5092652;28;20504;-59
2023/01/30 11:42:00;;;;;;;0.50;0.30;;;;;;;9.91;46.93;95053.97;5092640;28;20429;-59
2023/01/30 11:44:30;;;;;;;0.83;0.63;;;;;;;9.86;50.92;95044.19;5092768;28;20474;-59
2023/01/30 11:47:03;;;;;;;0.30;0.30;;;;;;;9.84;46.98;95050.81;5091843;28;20456;-59
2023/01/30 11:49:36;;;;;;;6.63;0.30;;;;;;;9.14;49.58;95028.78;5091217;28;20436;-59
2023/01/30 11:52:28;;;;;;;0.40;0.30;;;;;;;8.82;50.40;95042.28;5092748;28;20454;-59
2023/01/30 11:55:04;;;;;;;0.40;0.30;;;;;;;9.74;49.49;95035.75;5093000;28;20428;-59
2023/01/30 11:57:40;;;;;;;0.40;0.20;;;;;;;9.63;52.75;95030.78;5092800;28;20435;-59
2023/01/30 12:00:17;;;;;;;0.50;0.40;;;;;;;9.36;47.88;95023.19;5093222;28;20980;-59
2023/01/30 12:02:49;;;;;;;4.13;0.40;;;;;;;9.20;48.90;95016.34;5093091;28;20440;-59
2023/01/30 12:05:25;;;;;;;0.30;0.30;;;;;;;9.71;48.36;95023.09;5093063;28;20430;-59
2023/01/30 12:07:53;;;;;;;0.70;0.70;;;;;;;9.89;48.24;95014.50;5093079;28;20521;-59
2023/01/30 12:10:31;;;;;;;1.80;0.40;;;;;;;8.58;50.41;95020.06;5093116;28;20511;-58